Time;durP1;ratioP1;P1;durP2;ratioP2;P2;SDS_P1;SDS_P2;PMS_P1;PMS_P2;Temp;Humidity;BMP_temperature;BMP_pressure;BME280_temperature;BME280_humidity;BME280_pressure;Samples;Min_cycle;Max_cycle;Signal;HPM_P1;HPM_P2
2021/07/23 00:00:38;;;;;;;4.05;2.78;;;16.70;70.20;;;;;;5114842;28;20518;-84
2021/07/23 00:03:04;;;;;;;4.00;3.05;;;16.70;70.30;;;;;;5114847;28;20035;-84
2021/07/23 00:05:30;;;;;;;3.75;3.00;;;16.70;70.40;;;;;;5114061;28;20106;-84
2021/07/23 00:07:56;;;;;;;4.18;3.05;;;16.60;70.40;;;;;;5110948;28;20055;-84
2021/07/23 00:10:21;;;;;;;3.58;2.67;;;16.60;70.50;;;;;;5112743;28;20028;-85
2021/07/23 00:12:47;;;;;;;3.35;2.80;;;16.60;70.60;;;;;;5114866;28;20031;-84
2021/07/23 00:15:13;;;;;;;4.47;3.00;;;16.60;70.60;;;;;;5113756;28;20023;-85
2021/07/23 00:17:38;;;;;;;3.50;2.60;;;16.60;70.70;;;;;;5113913;28;20471;-84
2021/07/23 00:20:05;;;;;;;5.05;2.85;;;16.60;70.70;;;;;;5114602;28;20103;-85
2021/07/23 00:22:30;;;;;;;5.28;3.10;;;16.50;70.80;;;;;;5113219;28;20015;-83
2021/07/23 00:24:56;;;;;;;4.72;3.35;;;16.50;71.50;;;;;;5114706;28;20536;-83
2021/07/23 00:27:22;;;;;;;4.85;3.08;;;16.50;71.00;;;;;;5113530;28;20015;-85
2021/07/23 00:29:47;;;;;;;3.67;2.97;;;16.50;71.10;;;;;;5114915;28;20392;-84
2021/07/23 00:32:13;;;;;;;3.08;2.75;;;16.40;71.20;;;;;;5114760;28;20028;-83
2021/07/23 00:34:38;;;;;;;3.75;2.97;;;16.40;71.30;;;;;;5114479;28;20444;-83
2021/07/23 00:37:04;;;;;;;4.05;3.00;;;16.40;71.30;;;;;;5113158;28;20026;-83
2021/07/23 00:39:30;;;;;;;3.75;3.00;;;16.40;71.30;;;;;;5114279;28;20104;-84
2021/07/23 00:41:55;;;;;;;4.07;2.80;;;16.40;71.30;;;;;;5113038;28;20016;-83
2021/07/23 00:44:21;;;;;;;4.38;3.13;;;16.40;71.30;;;;;;5113083;28;20062;-85
2021/07/23 00:46:47;;;;;;;3.75;2.83;;;16.40;71.30;;;;;;5113080;28;20479;-84
2021/07/23 00:49:13;;;;;;;4.50;2.97;;;16.40;71.30;;;;;;5112995;28;20020;-84
2021/07/23 00:51:39;;;;;;;4.47;3.20;;;16.30;71.40;;;;;;5112874;28;20031;-83
2021/07/23 00:54:06;;;;;;;5.13;3.40;;;16.30;71.50;;;;;;5114248;28;20020;-84
2021/07/23 00:56:31;;;;;;;4.85;3.40;;;16.30;71.60;;;;;;5113159;28;20027;-84
2021/07/23 00:59:00;;;;;;;6.03;3.38;;;16.30;72.30;;;;;;5109857;28;20096;-85
2021/07/23 01:01:27;;;;;;;3.80;2.85;;;16.30;71.80;;;;;;5114070;28;20099;-85
2021/07/23 01:03:52;;;;;;;3.30;3.00;;;16.30;71.80;;;;;;5112813;28;20032;-84
2021/07/23 01:06:18;;;;;;;3.40;3.08;;;16.30;71.80;;;;;;5112677;28;20375;-84
2021/07/23 01:08:44;;;;;;;5.95;3.58;;;16.30;71.70;;;;;;5113045;28;20019;-84
2021/07/23 01:11:13;;;;;;;3.50;2.83;;;16.30;71.80;;;;;;5113297;28;20024;-84
2021/07/23 01:13:42;;;;;;;3.72;3.22;;;16.30;71.80;;;;;;5112970;28;20058;-83
2021/07/23 01:16:09;;;;;;;4.38;3.25;;;16.30;71.90;;;;;;5109884;28;20420;-84
2021/07/23 01:18:35;;;;;;;3.85;3.08;;;16.20;71.90;;;;;;5114184;28;20023;-84
2021/07/23 01:21:01;;;;;;;6.10;3.40;;;16.20;72.00;;;;;;5113350;28;20030;-84
2021/07/23 01:23:31;;;;;;;3.78;3.20;;;16.20;72.10;;;;;;5113816;28;20077;-84
2021/07/23 01:25:59;;;;;;;6.28;3.25;;;16.10;72.20;;;;;;5118320;28;20024;-83
2021/07/23 01:28:29;;;;;;;4.05;3.45;;;16.10;72.20;;;;;;5116608;28;20043;-83
2021/07/23 01:30:55;;;;;;;4.97;3.00;;;16.10;72.30;;;;;;5116691;28;20081;-82
2021/07/23 01:33:21;;;;;;;3.80;3.25;;;16.10;72.30;;;;;;5118378;28;20480;-84
2021/07/23 01:35:47;;;;;;;3.95;3.22;;;16.10;72.30;;;;;;5116462;28;20088;-84
2021/07/23 01:38:14;;;;;;;3.53;3.22;;;16.00;72.30;;;;;;5116302;28;20472;-84
2021/07/23 01:44:03;;;;;;;3.10;2.80;;;16.00;72.50;;;;;;5117832;28;20061;-82
2021/07/23 01:46:28;;;;;;;3.83;2.70;;;16.00;72.50;;;;;;5113531;28;20441;-83
2021/07/23 01:48:54;;;;;;;4.50;3.22;;;16.00;72.50;;;;;;5118227;28;20023;-84
2021/07/23 01:51:20;;;;;;;3.72;3.33;;;16.00;72.50;;;;;;5116112;28;20110;-84
2021/07/23 01:53:45;;;;;;;3.50;3.20;;;16.00;72.50;;;;;;5117366;28;20024;-83
2021/07/23 01:56:11;;;;;;;4.22;3.28;;;16.00;72.50;;;;;;5115942;28;20023;-84
2021/07/23 01:58:37;;;;;;;4.22;3.30;;;16.00;72.50;;;;;;5115801;28;20027;-86
2021/07/23 02:01:02;;;;;;;4.25;2.92;;;16.00;72.50;;;;;;5115778;28;20391;-83
2021/07/23 02:03:28;;;;;;;4.93;3.30;;;16.00;72.50;;;;;;5115671;28;20494;-83
2021/07/23 02:06:31;;;;;;;5.55;2.95;;;16.00;72.50;;;;;;5115812;28;20069;-84
2021/07/23 02:08:56;;;;;;;4.30;3.35;;;16.00;72.60;;;;;;5117068;28;20527;-85
2021/07/23 02:11:22;;;;;;;5.05;3.28;;;16.00;72.60;;;;;;5115547;28;20115;-84
2021/07/23 02:13:48;;;;;;;3.88;3.28;;;15.90;72.70;;;;;;5115810;28;20110;-84
2021/07/23 02:16:13;;;;;;;5.20;3.80;;;15.90;72.70;;;;;;5116935;28;20016;-85
2021/07/23 02:18:39;;;;;;;5.88;3.40;;;15.90;72.80;;;;;;5116965;28;20051;-83
2021/07/23 02:21:07;;;;;;;5.38;3.80;;;15.90;72.80;;;;;;5116684;28;20380;-84
2021/07/23 02:23:34;;;;;;;4.40;3.42;;;15.90;72.90;;;;;;5115371;28;20071;-83
2021/07/23 02:29:21;;;;;;;5.03;3.40;;;15.90;73.00;;;;;;5116737;28;20026;-85
2021/07/23 02:31:47;;;;;;;4.07;3.50;;;15.90;72.90;;;;;;5114746;28;20011;-84
2021/07/23 02:34:12;;;;;;;4.93;3.58;;;15.90;72.90;;;;;;5115077;28;20023;-83
2021/07/23 02:40:00;;;;;;;4.43;3.65;;;15.90;73.10;;;;;;5116414;28;20101;-83
2021/07/23 02:42:26;;;;;;;4.15;3.75;;;15.90;73.00;;;;;;5116501;28;20023;-83
2021/07/23 02:44:51;;;;;;;4.97;3.50;;;15.80;73.00;;;;;;5116360;28;20080;-84
2021/07/23 02:47:17;;;;;;;4.50;3.72;;;15.80;73.00;;;;;;5114902;28;20024;-83
2021/07/23 02:49:42;;;;;;;4.97;3.92;;;15.80;73.10;;;;;;5115009;28;20055;-84
2021/07/23 02:52:08;;;;;;;3.88;3.40;;;15.80;73.20;;;;;;5116299;28;20043;-84
2021/07/23 02:54:34;;;;;;;6.25;3.80;;;15.80;73.30;;;;;;5114787;28;20055;-84
2021/07/23 02:56:59;;;;;;;5.15;3.60;;;15.70;73.30;;;;;;5115166;28;20462;-82
2021/07/23 02:59:25;;;;;;;4.63;3.70;;;15.70;73.40;;;;;;5115672;28;20052;-83
2021/07/23 03:05:13;;;;;;;5.32;3.88;;;15.60;73.60;;;;;;5115984;28;20447;-83
2021/07/23 03:07:38;;;;;;;4.75;4.00;;;15.60;73.60;;;;;;5114712;28;20094;-85
2021/07/23 03:10:04;;;;;;;4.43;3.80;;;15.50;73.70;;;;;;5114790;28;20050;-83
2021/07/23 03:12:29;;;;;;;5.07;4.07;;;15.50;73.80;;;;;;5114309;28;20092;-84
2021/07/23 03:14:55;;;;;;;4.95;3.40;;;15.50;73.90;;;;;;5115603;28;20022;-84
2021/07/23 03:17:22;;;;;;;5.03;3.88;;;15.50;73.90;;;;;;5115494;28;20024;-84
2021/07/23 03:19:47;;;;;;;5.15;3.85;;;15.50;74.00;;;;;;5114149;28;20027;-83
2021/07/23 03:22:13;;;;;;;4.10;3.70;;;15.50;74.00;;;;;;5115188;28;20024;-84
2021/07/23 03:24:38;;;;;;;4.60;4.05;;;15.50;74.00;;;;;;5114068;28;20020;-84
2021/07/23 03:27:04;;;;;;;4.97;3.47;;;15.50;74.00;;;;;;5114125;28;20020;-83
2021/07/23 03:29:30;;;;;;;4.20;3.80;;;15.50;74.00;;;;;;5114529;28;20064;-83
2021/07/23 03:31:55;;;;;;;5.70;3.80;;;15.50;74.00;;;;;;5114193;28;20502;-83
2021/07/23 03:34:21;;;;;;;5.13;3.80;;;15.50;74.10;;;;;;5114041;28;20029;-84
2021/07/23 03:37:39;;;;;;;4.57;3.60;;;15.50;74.20;;;;;;5114165;28;20015;-83
2021/07/23 03:40:06;;;;;;;4.72;4.10;;;15.50;74.30;;;;;;5113705;28;20047;-84
2021/07/23 03:45:54;;;;;;;6.05;4.00;;;15.40;74.30;;;;;;5115297;28;20057;-83
2021/07/23 03:48:20;;;;;;;4.65;3.65;;;15.40;74.20;;;;;;5114968;28;20031;-84
2021/07/23 03:50:48;;;;;;;4.10;3.70;;;15.40;74.30;;;;;;5115249;28;20029;-84
2021/07/23 03:53:14;;;;;;;5.03;3.88;;;15.40;74.30;;;;;;5113693;28;20028;-84
2021/07/23 03:55:40;;;;;;;4.30;3.90;;;15.40;74.40;;;;;;5113685;28;20472;-84
2021/07/23 03:58:05;;;;;;;5.47;4.00;;;15.50;74.40;;;;;;5113752;28;20032;-83
2021/07/23 04:00:31;;;;;;;6.95;4.10;;;15.50;74.40;;;;;;5113393;28;20071;-84
2021/07/23 04:02:58;;;;;;;4.95;3.95;;;15.50;74.40;;;;;;5113519;28;20436;-83
2021/07/23 04:05:23;;;;;;;5.20;3.72;;;15.50;74.40;;;;;;5113575;28;20024;-86
2021/07/23 04:07:49;;;;;;;3.80;3.42;;;15.50;74.40;;;;;;5114801;28;20072;-83
2021/07/23 04:10:14;;;;;;;6.57;4.47;;;15.50;74.40;;;;;;5113349;28;20024;-83
2021/07/23 04:12:40;;;;;;;6.15;3.95;;;15.40;74.40;;;;;;5113414;28;20020;-84
2021/07/23 04:15:09;;;;;;;5.55;4.10;;;15.50;74.50;;;;;;5113438;28;20027;-85
2021/07/23 04:17:35;;;;;;;5.57;3.70;;;15.40;74.60;;;;;;5114628;28;20024;-84
2021/07/23 04:20:01;;;;;;;4.93;4.10;;;15.40;74.60;;;;;;5113434;28;20027;-84
2021/07/23 04:22:29;;;;;;;4.50;4.05;;;15.40;74.50;;;;;;5113259;28;20088;-83
2021/07/23 04:24:54;;;;;;;5.22;3.92;;;15.50;74.60;;;;;;5113042;28;20024;-84
2021/07/23 04:30:42;;;;;;;7.13;4.20;;;15.50;74.60;;;;;;5114783;28;20030;-83
2021/07/23 04:33:08;;;;;;;4.78;4.05;;;15.50;74.40;;;;;;5113007;28;20020;-83
2021/07/23 04:35:33;;;;;;;4.80;3.60;;;15.60;74.40;;;;;;5113087;28;20015;-85
2021/07/23 04:38:00;;;;;;;5.22;4.03;;;15.60;74.50;;;;;;5112847;28;20027;-83
2021/07/23 04:40:27;;;;;;;6.05;3.88;;;15.60;74.60;;;;;;5112749;28;20032;-84
2021/07/23 04:42:52;;;;;;;4.97;3.80;;;15.50;74.60;;;;;;5112960;28;20467;-83
2021/07/23 04:45:19;;;;;;;5.20;3.90;;;15.60;74.60;;;;;;5114313;28;20027;-84
2021/07/23 04:47:45;;;;;;;5.18;3.75;;;15.50;74.60;;;;;;5109979;28;20475;-84
2021/07/23 04:50:10;;;;;;;4.55;3.55;;;15.60;74.60;;;;;;5112632;28;20016;-83
2021/07/23 04:52:37;;;;;;;4.35;3.72;;;15.60;74.60;;;;;;5112848;28;20502;-83
2021/07/23 04:55:08;;;;;;;4.47;3.60;;;15.60;74.50;;;;;;5114023;28;20027;-84
2021/07/23 04:57:47;;;;;;;4.03;3.65;;;15.70;74.50;;;;;;5114516;28;20055;-85
2021/07/23 05:00:13;;;;;;;4.43;3.60;;;15.70;74.40;;;;;;5111427;28;20043;-83
2021/07/23 05:02:41;;;;;;;5.28;3.90;;;15.80;74.40;;;;;;5114019;28;20060;-82
2021/07/23 05:05:13;;;;;;;5.35;3.80;;;15.80;74.40;;;;;;5112758;28;20383;-83
2021/07/23 05:07:40;;;;;;;5.13;3.60;;;15.90;74.50;;;;;;5114127;28;20027;-83
2021/07/23 05:10:06;;;;;;;4.18;3.15;;;15.90;74.40;;;;;;5112553;28;20020;-83
2021/07/23 05:12:34;;;;;;;5.10;3.50;;;15.90;74.30;;;;;;5113924;28;20027;-83
2021/07/23 05:15:02;;;;;;;5.32;3.83;;;15.90;74.20;;;;;;5113972;28;20030;-84
2021/07/23 05:17:28;;;;;;;4.18;3.58;;;15.90;74.20;;;;;;5113894;28;20399;-84
2021/07/23 05:19:54;;;;;;;3.92;3.50;;;16.00;74.20;;;;;;5112493;28;20020;-83
2021/07/23 05:22:19;;;;;;;5.15;3.50;;;16.00;74.20;;;;;;5112476;28;20016;-83
2021/07/23 05:24:45;;;;;;;5.03;3.50;;;16.00;74.20;;;;;;5111532;28;20112;-85
2021/07/23 05:27:11;;;;;;;5.03;3.38;;;16.00;74.10;;;;;;5094653;28;20032;-84
2021/07/23 05:29:36;;;;;;;4.22;3.00;;;16.00;74.00;;;;;;5111557;28;20140;-83
2021/07/23 05:32:02;;;;;;;3.55;3.20;;;16.10;74.00;;;;;;5111511;28;20035;-82
2021/07/23 05:34:28;;;;;;;5.22;3.60;;;16.10;74.00;;;;;;5111567;28;20130;-82
2021/07/23 05:36:56;;;;;;;4.28;3.30;;;16.10;74.00;;;;;;5111509;28;20031;-82
2021/07/23 05:39:21;;;;;;;5.30;3.35;;;16.10;74.00;;;;;;5094598;28;20514;-82
2021/07/23 05:41:48;;;;;;;4.75;3.10;;;16.20;74.00;;;;;;5094589;28;20023;-83
2021/07/23 05:44:13;;;;;;;4.80;3.42;;;16.20;73.90;;;;;;5094510;28;20043;-77
2021/07/23 05:46:39;;;;;;;3.83;3.20;;;16.30;73.90;;;;;;5094239;28;20020;-77
2021/07/23 05:49:05;;;;;;;3.35;3.00;;;16.30;73.80;;;;;;5111527;28;20091;-78
2021/07/23 05:51:31;;;;;;;4.13;2.70;;;16.40;73.80;;;;;;5094258;28;20487;-77
2021/07/23 05:53:57;;;;;;;3.28;2.75;;;16.40;73.70;;;;;;5111349;28;20104;-77
2021/07/23 05:56:22;;;;;;;3.53;2.80;;;16.50;73.60;;;;;;5111917;28;20035;-78
2021/07/23 05:58:48;;;;;;;4.15;2.50;;;16.60;73.50;;;;;;5111978;28;20542;-77
2021/07/23 06:01:14;;;;;;;2.83;2.40;;;16.60;73.30;;;;;;5113269;28;20031;-77
2021/07/23 06:03:40;;;;;;;4.80;1.85;;;16.70;73.20;;;;;;5113548;28;20020;-77
2021/07/23 06:06:05;;;;;;;2.78;2.00;;;16.80;73.00;;;;;;5111822;28;20443;-72
2021/07/23 06:08:31;;;;;;;2.10;1.90;;;16.90;72.80;;;;;;5115851;28;20019;-73
2021/07/23 06:11:03;;;;;;;1.90;1.73;;;16.90;72.60;;;;;;5116593;28;20035;-74
2021/07/23 06:13:28;;;;;;;1.70;1.60;;;17.00;72.50;;;;;;5115227;28;20019;-73
2021/07/23 06:15:54;;;;;;;1.90;1.70;;;17.10;72.40;;;;;;5115117;28;20429;-73
2021/07/23 06:18:19;;;;;;;2.47;1.80;;;17.10;72.20;;;;;;5115143;28;20471;-72
2021/07/23 06:20:45;;;;;;;2.85;1.85;;;17.20;72.00;;;;;;5114962;28;20035;-72
2021/07/23 06:23:11;;;;;;;2.08;1.88;;;17.30;71.90;;;;;;5115063;28;20052;-72
2021/07/23 06:25:39;;;;;;;5.32;2.08;;;17.40;71.80;;;;;;5114935;28;20027;-72
2021/07/23 06:28:05;;;;;;;2.35;1.92;;;17.40;71.70;;;;;;5116035;28;20103;-72
2021/07/23 06:30:31;;;;;;;2.33;2.13;;;17.50;71.60;;;;;;5116241;28;20020;-72
2021/07/23 06:32:57;;;;;;;3.88;2.30;;;17.50;71.40;;;;;;5116100;28;20528;-73
2021/07/23 06:35:23;;;;;;;2.45;2.03;;;17.60;71.30;;;;;;5114614;28;20024;-73
2021/07/23 06:37:49;;;;;;;4.63;2.20;;;17.60;71.20;;;;;;5114649;28;20047;-72
2021/07/23 06:40:14;;;;;;;2.60;2.20;;;17.70;71.10;;;;;;5115033;28;20047;-72
2021/07/23 06:42:40;;;;;;;2.90;2.30;;;17.80;70.90;;;;;;5114686;28;20016;-72
2021/07/23 06:45:06;;;;;;;3.00;2.20;;;17.90;70.70;;;;;;5115225;28;20028;-72
2021/07/23 06:47:31;;;;;;;2.50;2.20;;;18.00;70.60;;;;;;5115763;28;20031;-72
2021/07/23 06:49:57;;;;;;;3.20;2.20;;;18.10;70.40;;;;;;5114611;28;20094;-72
2021/07/23 06:52:23;;;;;;;2.70;2.50;;;18.30;70.30;;;;;;5114547;28;20023;-72
2021/07/23 06:54:48;;;;;;;3.05;2.45;;;18.40;70.10;;;;;;5114476;28;20379;-72
2021/07/23 06:57:14;;;;;;;5.25;2.58;;;18.50;69.90;;;;;;5114444;28;20019;-72
2021/07/23 07:03:05;;;;;;;3.10;2.50;;;18.70;69.60;;;;;;5111717;28;20043;-72
2021/07/23 07:05:32;;;;;;;3.53;2.60;;;18.70;69.30;;;;;;5114295;28;20019;-73
2021/07/23 07:07:59;;;;;;;3.92;3.10;;;18.70;69.40;;;;;;5114191;28;20428;-73
2021/07/23 07:10:25;;;;;;;5.72;2.67;;;18.70;69.30;;;;;;5114110;28;20030;-73
2021/07/23 07:13:01;;;;;;;2.88;2.35;;;18.70;69.10;;;;;;5114070;28;20443;-72
2021/07/23 07:15:26;;;;;;;3.95;2.90;;;18.80;69.10;;;;;;5114493;28;20023;-72
2021/07/23 07:17:57;;;;;;;3.35;2.30;;;18.80;69.10;;;;;;5115378;28;20028;-72
2021/07/23 07:20:22;;;;;;;3.70;2.38;;;18.90;69.10;;;;;;5113817;28;20068;-73
2021/07/23 07:22:48;;;;;;;3.42;2.42;;;19.00;69.00;;;;;;5113916;28;20065;-72
2021/07/23 07:25:14;;;;;;;2.80;2.47;;;19.10;68.60;;;;;;5113833;28;20028;-72
2021/07/23 07:27:39;;;;;;;3.50;2.17;;;19.10;68.60;;;;;;5115169;28;20031;-73
2021/07/23 07:30:05;;;;;;;4.65;2.50;;;19.20;68.40;;;;;;5113708;28;20031;-72
2021/07/23 07:32:31;;;;;;;2.35;2.10;;;19.20;68.30;;;;;;5113534;28;20122;-72
2021/07/23 07:34:57;;;;;;;3.55;2.15;;;19.30;68.20;;;;;;5113686;28;20460;-72
2021/07/23 07:37:22;;;;;;;2.33;2.13;;;19.40;68.00;;;;;;5113664;28;20043;-73
2021/07/23 07:39:48;;;;;;;2.45;2.22;;;19.50;67.90;;;;;;5113716;28;20054;-72
2021/07/23 07:42:17;;;;;;;2.45;1.80;;;19.60;67.70;;;;;;5113599;28;20030;-72
2021/07/23 07:44:44;;;;;;;2.67;2.40;;;19.70;67.40;;;;;;5113667;28;20045;-72
2021/07/23 07:47:10;;;;;;;3.47;2.47;;;19.70;67.20;;;;;;5113399;28;20023;-71
2021/07/23 07:49:35;;;;;;;4.03;2.20;;;19.70;67.00;;;;;;5113972;28;20038;-72
2021/07/23 07:52:01;;;;;;;2.80;2.50;;;19.70;66.80;;;;;;5113905;28;20038;-73
2021/07/23 07:54:27;;;;;;;10.60;6.40;;;19.70;66.80;;;;;;5113383;28;20023;-73
2021/07/23 07:56:55;;;;;;;4.68;3.33;;;19.80;66.70;;;;;;5113448;28;20024;-73
2021/07/23 07:59:20;;;;;;;3.60;2.72;;;19.70;66.60;;;;;;5113145;28;20019;-74
2021/07/23 08:01:46;;;;;;;4.20;2.78;;;19.80;66.50;;;;;;5114541;28;20047;-73
2021/07/23 08:04:12;;;;;;;4.53;2.55;;;19.90;66.40;;;;;;5113085;28;20422;-73
2021/07/23 08:06:40;;;;;;;3.13;2.30;;;19.90;66.30;;;;;;5113070;28;20040;-74
2021/07/23 08:09:08;;;;;;;3.65;2.50;;;20.00;66.10;;;;;;5112927;28;20024;-72
2021/07/23 08:11:35;;;;;;;2.70;2.30;;;20.00;65.90;;;;;;5112958;28;20051;-74
2021/07/23 08:14:01;;;;;;;3.22;2.47;;;20.00;65.80;;;;;;5112813;28;20042;-75
2021/07/23 08:16:29;;;;;;;2.92;2.50;;;20.10;65.80;;;;;;5114179;28;20419;-72
2021/07/23 08:18:54;;;;;;;3.13;2.38;;;20.10;65.70;;;;;;5112821;28;20028;-74
2021/07/23 08:21:21;;;;;;;4.43;3.65;;;20.10;65.70;;;;;;5112686;28;20106;-74
2021/07/23 08:23:47;;;;;;;5.43;3.28;;;20.10;65.70;;;;;;5112646;28;20020;-72
2021/07/23 08:26:13;;;;;;;4.53;2.70;;;20.10;65.50;;;;;;5112754;28;20364;-72
2021/07/23 08:28:39;;;;;;;3.03;2.72;;;20.20;65.60;;;;;;5112669;28;20038;-73
2021/07/23 08:31:04;;;;;;;3.63;2.78;;;20.20;65.60;;;;;;5112228;28;20413;-72
2021/07/23 08:33:30;;;;;;;3.35;2.50;;;20.30;65.60;;;;;;5112733;28;20031;-71
2021/07/23 08:35:55;;;;;;;2.90;2.30;;;20.40;65.90;;;;;;5113921;28;20042;-73
2021/07/23 08:38:21;;;;;;;3.25;2.50;;;20.40;65.50;;;;;;5112536;28;20031;-72
2021/07/23 08:40:47;;;;;;;3.13;2.50;;;20.50;65.30;;;;;;5112380;28;20067;-71
2021/07/23 08:43:12;;;;;;;3.45;2.78;;;20.40;65.10;;;;;;5112441;28;20064;-74
2021/07/23 08:45:39;;;;;;;2.90;2.60;;;20.40;65.20;;;;;;5112454;28;20032;-72
2021/07/23 08:48:05;;;;;;;2.75;2.53;;;20.40;65.30;;;;;;5113777;28;20079;-72
2021/07/23 08:50:32;;;;;;;3.35;2.40;;;20.40;65.30;;;;;;5114021;28;20047;-70
2021/07/23 08:52:58;;;;;;;2.92;2.47;;;20.50;65.20;;;;;;5112359;28;20035;-72
2021/07/23 08:55:24;;;;;;;2.85;2.38;;;20.40;65.10;;;;;;5112336;28;20035;-72
2021/07/23 08:57:51;;;;;;;3.80;2.83;;;20.50;65.20;;;;;;5113600;28;20031;-73
2021/07/23 09:00:19;;;;;;;2.85;2.55;;;20.50;65.00;;;;;;5109544;28;20054;-71
2021/07/23 09:02:51;;;;;;;3.78;2.70;;;20.60;64.90;;;;;;5112079;28;20043;-70
2021/07/23 09:05:18;;;;;;;3.05;2.58;;;20.60;65.00;;;;;;5113576;28;20433;-70
2021/07/23 09:07:44;;;;;;;3.10;2.28;;;20.60;65.00;;;;;;5112168;28;20122;-74
2021/07/23 09:10:09;;;;;;;3.58;2.58;;;20.60;64.90;;;;;;5112283;28;20509;-72
2021/07/23 09:12:47;;;;;;;4.30;2.45;;;20.60;64.90;;;;;;5112313;28;20027;-72
2021/07/23 09:15:18;;;;;;;2.60;2.30;;;20.60;65.10;;;;;;5112297;28;20047;-71
2021/07/23 09:17:45;;;;;;;4.70;2.65;;;20.60;65.10;;;;;;5112184;28;20032;-71
2021/07/23 09:20:10;;;;;;;3.03;2.30;;;20.60;65.10;;;;;;5111984;28;20027;-71
2021/07/23 09:22:50;;;;;;;6.55;2.80;;;20.60;65.10;;;;;;5113484;28;20475;-73
2021/07/23 09:25:31;;;;;;;3.85;3.00;;;20.80;65.10;;;;;;5113285;28;20081;-70
2021/07/23 09:27:56;;;;;;;3.90;2.45;;;20.90;64.80;;;;;;5113365;28;20042;-72
2021/07/23 09:30:42;;;;;;;2.67;2.47;;;20.90;64.70;;;;;;5113370;28;20479;-70
2021/07/23 09:33:12;;;;;;;4.68;3.05;;;20.90;64.70;;;;;;5111938;28;20028;-72
2021/07/23 09:35:49;;;;;;;3.65;3.10;;;20.80;64.90;;;;;;5111876;28;20491;-70
2021/07/23 09:38:14;;;;;;;3.35;2.58;;;20.80;65.10;;;;;;5112798;28;20024;-72
2021/07/23 09:40:42;;;;;;;3.30;2.75;;;20.80;65.30;;;;;;5111905;28;20035;-70
2021/07/23 09:43:07;;;;;;;3.75;2.50;;;20.80;65.30;;;;;;5114530;28;20030;-72
2021/07/23 09:45:34;;;;;;;4.18;2.60;;;20.80;65.20;;;;;;5115882;28;20457;-70
2021/07/23 09:48:09;;;;;;;3.47;2.97;;;20.90;65.10;;;;;;5117137;28;20020;-71
2021/07/23 09:50:42;;;;;;;5.30;3.38;;;20.80;65.00;;;;;;5115789;28;20028;-73
2021/07/23 09:53:12;;;;;;;4.03;3.00;;;20.70;65.20;;;;;;5117357;28;20043;-70
2021/07/23 09:55:40;;;;;;;4.55;2.55;;;20.70;65.40;;;;;;5115814;28;20031;-73
2021/07/23 09:58:07;;;;;;;3.92;2.70;;;20.70;65.40;;;;;;5115803;28;20118;-71
2021/07/23 10:00:42;;;;;;;2.88;2.60;;;20.70;65.40;;;;;;5116975;28;20073;-72
2021/07/23 10:03:12;;;;;;;5.13;2.72;;;20.80;65.20;;;;;;5115434;28;20495;-71
2021/07/23 10:05:47;;;;;;;3.00;2.60;;;20.90;64.90;;;;;;5115530;28;20540;-71
2021/07/23 10:08:20;;;;;;;3.58;2.60;;;20.90;64.70;;;;;;5115375;28;20399;-75
2021/07/23 10:10:50;;;;;;;5.00;2.80;;;21.00;64.50;;;;;;5115378;28;20020;-74
2021/07/23 10:13:20;;;;;;;4.22;2.72;;;21.10;64.30;;;;;;5115673;28;20092;-74
2021/07/23 10:15:45;;;;;;;3.80;2.60;;;21.20;64.20;;;;;;5116793;28;20505;-74
2021/07/23 10:18:11;;;;;;;3.55;2.65;;;21.30;63.90;;;;;;5116777;28;20020;-74
2021/07/23 10:20:39;;;;;;;3.75;2.75;;;21.30;63.60;;;;;;5116502;28;20042;-75
2021/07/23 10:23:05;;;;;;;4.25;3.22;;;21.30;63.40;;;;;;5115433;28;20433;-74
2021/07/23 10:25:34;;;;;;;3.50;2.75;;;21.40;63.20;;;;;;5114951;28;20020;-74
2021/07/23 10:28:00;;;;;;;3.88;2.92;;;21.40;63.00;;;;;;5116436;28;20073;-74
2021/07/23 10:30:34;;;;;;;3.85;2.58;;;21.40;63.10;;;;;;5114976;28;20044;-74
2021/07/23 10:33:01;;;;;;;2.83;2.50;;;21.50;63.10;;;;;;5116519;28;20048;-74
2021/07/23 10:35:28;;;;;;;3.20;2.50;;;21.50;62.80;;;;;;5115011;28;20049;-74
2021/07/23 10:37:55;;;;;;;3.13;2.80;;;21.70;62.70;;;;;;5116287;28;20499;-74
2021/07/23 10:40:29;;;;;;;2.97;2.40;;;21.80;62.60;;;;;;5114731;28;20027;-74
2021/07/23 10:42:55;;;;;;;3.05;2.40;;;21.90;62.20;;;;;;5116104;28;20028;-75
2021/07/23 10:45:21;;;;;;;3.78;2.38;;;22.00;61.70;;;;;;5116041;28;20069;-74
2021/07/23 10:47:50;;;;;;;2.83;2.30;;;21.90;61.30;;;;;;5116334;28;20055;-75
2021/07/23 10:50:28;;;;;;;2.70;2.20;;;21.90;61.40;;;;;;5114636;28;20467;-76
2021/07/23 10:52:54;;;;;;;2.83;2.28;;;21.90;61.30;;;;;;5114308;28;20369;-76
2021/07/23 10:58:42;;;;;;;2.97;2.45;;;21.90;61.60;;;;;;5116103;28;20031;-75
2021/07/23 11:01:08;;;;;;;3.63;2.63;;;21.90;61.40;;;;;;5114216;28;20032;-73
2021/07/23 11:03:37;;;;;;;2.60;2.28;;;21.90;61.20;;;;;;5114622;28;20030;-72
2021/07/23 11:06:23;;;;;;;4.15;2.50;;;21.90;61.20;;;;;;5114628;28;20027;-76
2021/07/23 11:08:54;;;;;;;5.15;2.20;;;22.00;61.10;;;;;;5115357;28;20483;-76
2021/07/23 11:11:24;;;;;;;2.95;2.10;;;22.20;61.00;;;;;;5114219;28;20055;-77
2021/07/23 11:13:51;;;;;;;2.95;2.30;;;22.30;61.30;;;;;;5114201;28;20479;-76
2021/07/23 11:16:27;;;;;;;3.67;2.67;;;22.40;60.30;;;;;;5114154;28;20062;-77
2021/07/23 11:18:58;;;;;;;2.97;2.25;;;22.40;59.80;;;;;;5114321;28;20027;-77
2021/07/23 11:21:35;;;;;;;2.38;2.15;;;22.40;59.90;;;;;;5115402;28;20029;-76
2021/07/23 11:24:07;;;;;;;2.63;2.30;;;22.40;59.80;;;;;;5115303;28;20715;-78
2021/07/23 11:26:33;;;;;;;3.60;2.42;;;22.40;59.80;;;;;;5114126;28;20042;-76
2021/07/23 11:28:59;;;;;;;2.53;2.20;;;22.50;59.80;;;;;;5113941;28;20051;-77
2021/07/23 11:31:33;;;;;;;3.50;2.38;;;22.50;59.70;;;;;;5115562;28;20027;-78
2021/07/23 11:34:19;;;;;;;3.00;2.70;;;22.70;59.50;;;;;;5113717;28;20028;-76
2021/07/23 11:36:45;;;;;;;3.35;2.40;;;22.80;59.30;;;;;;5113734;28;20104;-77
2021/07/23 11:39:11;;;;;;;2.42;2.20;;;22.90;59.20;;;;;;5113721;28;20035;-76
2021/07/23 11:41:55;;;;;;;3.15;2.47;;;23.10;59.10;;;;;;5113762;28;20031;-76
2021/07/23 11:44:21;;;;;;;2.72;2.40;;;23.30;58.90;;;;;;5114870;28;20023;-76
2021/07/23 11:46:46;;;;;;;2.75;2.20;;;23.30;58.60;;;;;;5113652;28;20076;-76
2021/07/23 11:49:12;;;;;;;2.75;2.45;;;23.20;58.60;;;;;;5114829;28;20031;-75
2021/07/23 11:51:42;;;;;;;2.53;2.33;;;23.20;58.50;;;;;;5113580;28;20031;-76
2021/07/23 11:54:09;;;;;;;3.30;2.45;;;23.10;58.70;;;;;;5113519;28;20137;-76
2021/07/23 11:56:35;;;;;;;3.67;2.47;;;23.20;58.70;;;;;;5113551;28;20391;-77
2021/07/23 11:59:03;;;;;;;3.10;2.15;;;23.20;58.80;;;;;;5113347;28;20023;-76
2021/07/23 12:01:40;;;;;;;3.13;2.67;;;23.20;58.70;;;;;;5113227;28;20086;-76
2021/07/23 12:04:08;;;;;;;3.22;2.40;;;23.30;58.20;;;;;;5112996;28;20110;-77
2021/07/23 12:06:42;;;;;;;2.92;2.60;;;23.40;58.10;;;;;;5112848;28;20482;-74
2021/07/23 12:09:10;;;;;;;4.43;2.55;;;23.30;58.10;;;;;;5114351;28;20104;-75
2021/07/23 12:12:13;;;;;;;4.57;2.80;;;23.40;58.10;;;;;;5113113;28;20027;-74
2021/07/23 12:14:38;;;;;;;5.00;3.00;;;23.50;57.90;;;;;;5112857;28;20027;-76
2021/07/23 12:17:04;;;;;;;2.85;2.35;;;23.50;57.80;;;;;;5114217;28;20020;-76
2021/07/23 12:19:30;;;;;;;4.25;3.22;;;23.50;57.70;;;;;;5113085;28;20160;-76
2021/07/23 12:22:42;;;;;;;5.85;2.80;;;23.60;57.70;;;;;;5114395;28;20490;-77
2021/07/23 12:25:19;;;;;;;3.05;2.75;;;23.80;57.60;;;;;;5112648;28;20054;-77
2021/07/23 12:27:46;;;;;;;4.32;3.13;;;23.70;57.40;;;;;;5110033;28;20027;-74
2021/07/23 12:30:13;;;;;;;2.80;2.60;;;23.70;57.50;;;;;;5112628;28;20475;-76
2021/07/23 12:32:39;;;;;;;4.00;3.17;;;23.70;57.60;;;;;;5112765;28;20028;-77
2021/07/23 12:35:05;;;;;;;4.63;3.53;;;23.80;57.30;;;;;;5113050;28;20031;-76
2021/07/23 12:37:32;;;;;;;5.15;2.63;;;23.80;57.50;;;;;;5113906;28;20106;-74
2021/07/23 12:40:03;;;;;;;3.78;3.00;;;23.90;57.10;;;;;;5112542;28;20032;-76
2021/07/23 12:42:30;;;;;;;3.40;2.70;;;24.10;56.90;;;;;;5113850;28;20497;-77
2021/07/23 12:44:56;;;;;;;4.85;2.50;;;24.30;56.80;;;;;;5112548;28;20016;-79
2021/07/23 12:47:26;;;;;;;3.28;2.97;;;24.40;56.50;;;;;;5114002;28;20472;-79
2021/07/23 12:49:54;;;;;;;6.68;3.25;;;24.40;56.30;;;;;;5113790;28;20028;-78
2021/07/23 12:53:13;;;;;;;4.10;3.30;;;24.40;56.10;;;;;;5112705;28;20110;-78
2021/07/23 12:55:38;;;;;;;5.20;3.25;;;24.20;55.90;;;;;;5112461;28;20118;-77
2021/07/23 12:58:05;;;;;;;3.15;2.85;;;24.10;56.00;;;;;;5112431;28;20462;-78
2021/07/23 13:00:31;;;;;;;4.35;3.47;;;24.00;56.20;;;;;;5112263;28;20114;-78
2021/07/23 13:02:57;;;;;;;3.50;3.17;;;24.00;56.30;;;;;;5112104;28;20063;-78
2021/07/23 13:05:31;;;;;;;3.58;3.15;;;24.10;56.20;;;;;;5112238;28;20016;-79
2021/07/23 13:07:57;;;;;;;4.35;2.88;;;24.10;56.20;;;;;;5112372;28;20077;-78
2021/07/23 13:10:22;;;;;;;4.18;3.30;;;24.10;56.10;;;;;;5112503;28;20027;-79
2021/07/23 13:12:48;;;;;;;4.22;3.30;;;24.10;56.00;;;;;;5112374;28;20024;-79
2021/07/23 13:15:43;;;;;;;3.55;2.90;;;24.10;56.00;;;;;;5113862;28;20032;-78
2021/07/23 13:18:08;;;;;;;3.30;2.80;;;24.20;56.20;;;;;;5116699;28;20031;-79